Time;durP1;ratioP1;P1;durP2;ratioP2;P2;SDS_P1;SDS_P2;PMS_P1;PMS_P2;Temp;Humidity;BMP_temperature;BMP_pressure;BME280_temperature;BME280_humidity;BME280_pressure;Samples;Min_cycle;Max_cycle;Signal;HPM_P1;HPM_P2
2023/07/02 08:27:19;;;;;;;0.20;0.20;;;26.80;97.40;;;28.66;69.62;94330.28;5133932;27;20538;-37
2023/07/02 08:29:47;;;;;;;0.20;0.20;;;27.80;89.50;;;28.85;70.66;94324.56;5112749;28;20202;-41
2023/07/02 08:32:15;;;;;;;0.20;0.20;;;28.20;89.60;;;29.04;70.38;94335.75;5112512;28;20195;-41
2023/07/02 08:34:43;;;;;;;0.20;0.20;;;28.40;89.00;;;29.17;70.61;94325.84;5112950;28;20274;-37
2023/07/02 08:37:10;;;;;;;0.20;0.20;;;28.60;88.20;;;29.24;68.39;94333.44;5111753;28;20224;-38
2023/07/02 08:39:39;;;;;;;0.20;0.20;;;28.80;87.00;;;29.25;67.80;94337.75;5111565;28;20654;-42
2023/07/02 08:42:07;;;;;;;0.25;0.25;;;28.80;85.90;;;29.27;67.42;94334.69;5112470;28;20208;-39
2023/07/02 08:44:35;;;;;;;0.30;0.30;;;28.90;85.40;;;29.24;66.82;94344.25;5112443;28;20640;-42
2023/07/02 08:47:03;;;;;;;0.20;0.20;;;28.90;84.60;;;29.22;66.94;94343.78;5103436;28;20198;-41
2023/07/02 08:49:30;;;;;;;0.30;0.30;;;28.90;84.00;;;29.18;66.32;94340.16;5108876;28;20284;-43
2023/07/02 08:51:58;;;;;;;0.20;0.20;;;28.90;83.60;;;29.15;65.71;94340.78;5128574;28;20196;-37
2023/07/02 08:54:25;;;;;;;0.32;0.32;;;28.80;83.40;;;29.13;65.51;94341.13;5112902;28;20215;-41
2023/07/02 08:56:52;;;;;;;0.25;0.25;;;28.80;82.90;;;29.11;65.04;94337.16;5112403;28;20237;-39
2023/07/02 08:59:19;;;;;;;0.20;0.20;;;28.80;82.80;;;29.07;65.39;94345.13;5112241;28;20213;-41
2023/07/02 09:01:52;;;;;;;0.20;0.20;;;28.70;82.60;;;29.04;64.81;94349.25;5112362;28;20189;-42
2023/07/02 09:04:25;;;;;;;0.20;0.20;;;28.70;81.50;;;29.01;64.43;94355.28;5111168;28;20185;-42
2023/07/02 09:07:07;;;;;;;0.20;0.20;;;28.60;82.40;;;29.01;64.96;94346.41;5112057;28;20603;-39
2023/07/02 09:09:49;;;;;;;0.25;0.25;;;28.60;82.40;;;29.06;66.30;94338.13;5112721;28;20263;-39
2023/07/02 09:12:35;;;;;;;0.30;0.30;;;28.60;83.30;;;29.13;66.77;94349.22;5112284;28;20620;-41
2023/07/02 09:15:06;;;;;;;0.30;0.30;;;28.60;84.20;;;29.20;67.33;94341.41;5112189;28;20240;-43
2023/07/02 09:17:37;;;;;;;0.20;0.20;;;28.70;85.10;;;29.29;67.54;94343.28;5127595;28;20206;-38
2023/07/02 09:20:08;;;;;;;0.20;0.20;;;28.70;85.70;;;29.36;68.36;94346.31;5112030;28;20262;-43
2023/07/02 09:22:36;;;;;;;0.20;0.20;;;28.80;86.30;;;29.44;68.06;94347.38;5111968;28;20178;-42
2023/07/02 09:25:04;;;;;;;0.20;0.20;;;28.80;86.80;;;29.52;68.33;94349.22;5110686;28;20198;-41
2023/07/02 09:27:41;;;;;;;0.20;0.20;;;28.90;87.40;;;29.57;68.94;94346.34;5102108;28;20182;-40
2023/07/02 09:30:15;;;;;;;0.20;0.20;;;28.90;86.70;;;29.63;68.56;94349.66;5098883;28;20261;-38
2023/07/02 09:32:44;;;;;;;0.20;0.20;;;29.00;87.50;;;29.70;69.51;94360.75;5096386;28;20202;-39
2023/07/02 09:35:12;;;;;;;0.20;0.20;;;29.10;87.50;;;29.75;69.30;94357.03;5096626;28;20221;-44
2023/07/02 09:37:43;;;;;;;0.20;0.20;;;29.10;87.50;;;29.81;69.37;94361.13;5097706;28;20229;-44
2023/07/02 09:40:11;;;;;;;0.20;0.20;;;29.20;87.50;;;29.84;69.28;94363.19;5098181;28;20284;-39
2023/07/02 09:42:40;;;;;;;0.25;0.25;;;29.30;87.60;;;29.89;69.22;94354.88;5098303;28;20222;-39
2023/07/02 09:45:10;;;;;;;0.20;0.20;;;29.30;87.60;;;29.94;69.21;94360.09;5096546;28;20268;-43
2023/07/02 09:47:47;;;;;;;0.22;0.22;;;29.40;88.50;;;29.97;69.66;94354.06;5113371;28;20199;-45
2023/07/02 09:50:17;;;;;;;0.20;0.20;;;29.40;87.50;;;30.02;69.26;94361.97;5098233;28;20185;-38
2023/07/02 09:52:46;;;;;;;0.30;0.30;;;29.50;87.70;;;30.07;69.36;94363.69;5097739;28;20188;-42
2023/07/02 09:55:15;;;;;;;0.20;0.20;;;29.50;87.70;;;30.10;69.46;94368.44;5098041;28;20664;-43
2023/07/02 09:57:44;;;;;;;0.20;0.20;;;29.60;87.70;;;30.15;69.32;94373.66;5096690;28;20203;-39
2023/07/02 10:00:13;;;;;;;0.30;0.30;;;29.60;87.80;;;30.18;69.88;94359.44;5097878;28;20606;-40
2023/07/02 10:02:41;;;;;;;0.30;0.30;;;29.70;87.80;;;30.22;69.74;94367.69;5097340;28;20191;-41
2023/07/02 10:05:08;;;;;;;0.20;0.20;;;29.70;87.80;;;30.27;69.84;94367.53;5113278;28;20209;-43
2023/07/02 10:07:36;;;;;;;0.20;0.20;;;29.80;87.90;;;30.31;70.03;94367.63;5096698;28;20199;-43
2023/07/02 10:10:04;;;;;;;0.30;0.30;;;29.80;87.80;;;30.34;69.75;94389.41;5098253;28;20731;-37
2023/07/02 10:12:31;;;;;;;0.22;0.22;;;29.80;87.90;;;30.37;69.43;94379.03;5130276;27;20567;-37
2023/07/02 10:14:59;;;;;;;0.30;0.30;;;29.90;87.90;;;30.39;69.63;94385.69;5097115;28;20192;-37
2023/07/02 10:17:34;;;;;;;0.30;0.30;;;29.90;87.70;;;30.42;69.53;94384.25;5097253;28;20282;-40
2023/07/02 10:20:13;;;;;;;0.28;0.28;;;30.00;87.10;;;30.43;69.13;94389.34;5097035;28;20191;-41
2023/07/02 10:22:54;;;;;;;0.22;0.22;;;30.00;86.00;;;30.42;67.60;94386.94;5096654;28;20516;-46
2023/07/02 10:25:26;;;;;;;0.20;0.20;;;30.00;83.10;;;30.39;66.42;94393.81;5096639;28;20634;-40
2023/07/02 10:27:54;;;;;;;0.20;0.20;;;30.00;82.20;;;30.34;64.97;94386.69;5096997;28;20180;-41
2023/07/02 10:30:36;;;;;;;0.20;0.20;;;29.90;81.70;;;30.25;63.78;94391.41;5096894;28;20631;-42
2023/07/02 10:33:14;;;;;;;0.30;0.30;;;29.90;79.20;;;30.18;63.09;94393.84;5097116;28;20674;-41
2023/07/02 10:35:48;;;;;;;0.20;0.20;;;29.80;78.80;;;30.11;62.63;94383.53;5096776;28;20216;-41
2023/07/02 10:38:26;;;;;;;0.30;0.30;;;29.80;79.40;;;30.04;61.42;94394.06;5096057;28;20190;-41
2023/07/02 10:40:59;;;;;;;0.20;0.20;;;29.70;77.50;;;29.98;61.12;94390.78;5097291;28;20202;-42
2023/07/02 10:43:32;;;;;;;0.30;0.30;;;29.60;77.60;;;29.92;60.83;94399.41;5096772;28;20625;-37
2023/07/02 10:46:00;;;;;;;0.38;0.38;;;29.50;77.10;;;29.87;60.92;94405.78;5096947;28;20205;-41
2023/07/02 10:48:30;;;;;;;0.20;0.20;;;29.40;77.70;;;29.81;59.83;94398.97;5096822;28;20222;-38
2023/07/02 10:50:57;;;;;;;0.30;0.30;;;29.40;77.40;;;29.76;59.60;94405.38;5095840;28;20616;-40
2023/07/02 10:53:26;;;;;;;0.20;0.20;;;29.30;77.30;;;29.69;59.55;94411.28;5129677;27;20194;-40
2023/07/02 10:55:56;;;;;;;0.20;0.20;;;29.20;77.20;;;29.64;59.50;94403.38;5095354;28;20213;-39
2023/07/02 10:58:24;;;;;;;0.22;0.22;;;29.20;77.50;;;29.60;60.21;94396.22;5094678;28;20585;-39
2023/07/02 11:00:52;;;;;;;0.22;0.22;;;29.10;78.10;;;29.59;61.05;94392.75;5095556;28;20595;-41
2023/07/02 11:03:25;;;;;;;0.30;0.30;;;29.10;78.70;;;29.59;60.83;94403.56;5096428;28;20543;-50
2023/07/02 11:05:54;;;;;;;0.30;0.30;;;29.10;78.70;;;29.61;61.51;94401.31;5095621;28;20201;-39
2023/07/02 11:08:24;;;;;;;0.20;0.20;;;29.00;79.50;;;29.62;62.51;94415.63;5095363;28;20198;-39
2023/07/02 11:11:04;;;;;;;0.20;0.20;;;29.00;79.90;;;29.64;62.44;94424.22;5096041;28;20307;-38
2023/07/02 11:13:32;;;;;;;0.35;0.35;;;29.10;80.10;;;29.66;62.33;94420.06;5095905;28;20183;-43
2023/07/02 11:15:59;;;;;;;0.28;0.28;;;29.10;80.30;;;29.68;63.02;94415.09;5094430;28;20210;-41
2023/07/02 11:18:31;;;;;;;0.20;0.20;;;29.10;80.50;;;29.72;62.91;94417.94;5111387;28;20191;-44
2023/07/02 11:21:10;;;;;;;0.20;0.20;;;29.10;80.30;;;29.74;62.92;94418.41;5096190;28;20494;-39
2023/07/02 11:23:37;;;;;;;0.20;0.20;;;29.10;80.40;;;29.78;63.17;94426.66;5095755;28;20170;-42
2023/07/02 11:26:05;;;;;;;0.30;0.30;;;29.10;80.90;;;29.80;63.33;94413.63;5095681;28;20274;-42
2023/07/02 11:28:34;;;;;;;0.30;0.30;;;29.20;81.00;;;29.83;63.51;94407.56;5096112;28;20303;-39
2023/07/02 11:31:05;;;;;;;0.30;0.30;;;29.20;81.00;;;29.86;62.98;94405.00;5095058;28;20183;-43
2023/07/02 11:33:38;;;;;;;0.20;0.20;;;29.30;81.10;;;29.89;62.93;94402.75;5094366;28;20260;-38
2023/07/02 11:36:07;;;;;;;0.30;0.30;;;29.30;81.10;;;29.93;63.73;94407.22;5095968;28;20225;-42
2023/07/02 11:38:36;;;;;;;0.20;0.20;;;29.30;81.10;;;29.96;63.19;94405.75;5094707;28;20250;-41
2023/07/02 11:41:04;;;;;;;0.38;0.38;;;29.30;81.10;;;29.98;63.81;94406.22;5094686;28;20516;-41
2023/07/02 11:43:32;;;;;;;0.30;0.30;;;29.40;81.30;;;30.00;63.92;94415.59;5095405;28;20213;-40
2023/07/02 11:45:59;;;;;;;0.20;0.20;;;29.40;81.30;;;30.03;63.73;94406.03;5095448;28;20194;-40
2023/07/02 11:48:26;;;;;;;0.20;0.20;;;29.40;81.30;;;30.07;63.58;94411.59;5095320;28;20191;-42
2023/07/02 11:50:54;;;;;;;0.20;0.20;;;29.50;81.30;;;30.09;64.12;94415.53;5094327;28;20199;-46
2023/07/02 11:53:21;;;;;;;0.30;0.30;;;29.50;81.40;;;30.11;63.89;94405.16;5095389;28;20306;-50
2023/07/02 11:55:48;;;;;;;0.20;0.20;;;29.50;81.50;;;30.14;64.17;94409.16;5095281;28;20223;-40
2023/07/02 11:58:16;;;;;;;0.30;0.30;;;29.50;81.30;;;30.15;63.68;94411.53;5095522;28;20199;-41
2023/07/02 12:00:43;;;;;;;0.20;0.20;;;29.60;81.30;;;30.19;63.75;94408.94;5095599;28;20230;-39
2023/07/02 12:03:10;;;;;;;0.20;0.20;;;29.60;81.40;;;30.20;63.34;94410.53;5095125;28;20192;-38
2023/07/02 12:05:38;;;;;;;0.30;0.30;;;29.60;81.30;;;30.22;64.19;94408.28;5095267;28;20221;-37
2023/07/02 12:08:06;;;;;;;0.22;0.22;;;29.70;81.40;;;30.24;64.08;94407.97;5095269;28;20271;-39
2023/07/02 12:10:33;;;;;;;0.25;0.25;;;29.70;81.30;;;30.24;63.58;94408.75;5095175;27;20207;-41
2023/07/02 12:13:02;;;;;;;0.20;0.20;;;29.70;81.20;;;30.26;63.36;94408.41;5095250;28;20201;-41
2023/07/02 12:15:29;;;;;;;0.20;0.20;;;29.80;81.30;;;30.27;63.92;94410.81;5095384;28;20188;-42
2023/07/02 12:17:56;;;;;;;0.20;0.20;;;29.80;81.20;;;30.30;63.59;94420.94;5095397;28;20586;-41
2023/07/02 12:20:23;;;;;;;0.30;0.30;;;29.70;81.10;;;30.30;63.93;94420.94;5095690;28;20241;-38
2023/07/02 12:22:50;;;;;;;0.30;0.30;;;29.80;81.20;;;30.32;63.49;94431.44;5094012;28;20193;-39
2023/07/02 12:25:18;;;;;;;0.30;0.30;;;29.80;81.20;;;30.32;63.35;94417.91;5094907;28;20317;-38
2023/07/02 12:27:46;;;;;;;0.32;0.32;;;29.80;81.10;;;30.34;63.82;94432.69;5095236;28;20193;-41
2023/07/02 12:30:17;;;;;;;0.30;0.30;;;29.80;81.20;;;30.35;63.63;94422.66;5095338;28;20196;-41
2023/07/02 12:32:44;;;;;;;0.22;0.22;;;29.80;81.10;;;30.36;63.32;94418.84;5095015;28;20192;-38
2023/07/02 12:35:12;;;;;;;0.20;0.20;;;29.80;81.00;;;30.37;63.45;94419.63;5094042;28;20243;-38
2023/07/02 12:38:08;;;;;;;0.30;0.30;;;29.80;81.00;;;30.35;63.58;94414.56;5094962;28;20270;-40
2023/07/02 12:40:35;;;;;;;0.22;0.22;;;29.80;80.80;;;30.37;63.96;94416.91;5093415;28;20256;-38
2023/07/02 12:43:02;;;;;;;0.20;0.20;;;29.80;81.00;;;30.39;63.87;94417.41;5094635;28;20707;-38
2023/07/02 12:45:31;;;;;;;0.30;0.30;;;29.80;81.10;;;30.40;63.60;94410.88;5094801;28;20196;-38
2023/07/02 12:47:58;;;;;;;0.20;0.20;;;29.90;81.10;;;30.42;63.98;94408.59;5094816;28;20274;-41
2023/07/02 12:50:25;;;;;;;0.30;0.30;;;29.90;81.20;;;30.43;63.35;94407.47;5095000;28;20192;-38
2023/07/02 12:52:53;;;;;;;0.30;0.30;;;29.90;81.10;;;30.44;63.99;94423.38;5094589;28;20540;-41
2023/07/02 12:55:20;;;;;;;0.22;0.22;;;29.90;81.10;;;30.46;63.99;94409.53;5094734;28;20673;-38
2023/07/02 12:57:47;;;;;;;0.20;0.20;;;30.00;81.10;;;30.47;63.65;94413.84;5094948;28;20214;-40
2023/07/02 13:00:14;;;;;;;0.30;0.30;;;30.00;81.10;;;30.49;63.68;94416.97;5094694;28;20191;-40
2023/07/02 13:02:42;;;;;;;0.25;0.25;;;30.00;81.00;;;30.49;63.47;94416.97;5096778;28;20199;-38
2023/07/02 13:05:24;;;;;;;0.20;0.20;;;30.00;81.00;;;30.50;63.22;94418.59;5098507;28;20179;-39
2023/07/02 13:07:51;;;;;;;0.32;0.32;;;30.00;80.90;;;30.52;63.29;94419.06;5098362;28;20191;-40
2023/07/02 13:10:18;;;;;;;0.30;0.30;;;30.00;80.90;;;30.56;63.34;94421.91;5098795;28;20211;-42
2023/07/02 13:12:45;;;;;;;0.30;0.30;;;30.00;80.90;;;30.58;63.79;94435.88;5098605;28;20211;-38
2023/07/02 13:15:12;;;;;;;0.30;0.30;;;30.00;80.80;;;30.60;63.23;94417.41;5114167;28;20196;-39
2023/07/02 13:17:41;;;;;;;0.30;0.30;;;30.10;80.70;;;30.64;63.51;94421.03;5098428;28;20216;-42
2023/07/02 13:20:09;;;;;;;0.20;0.20;;;30.10;80.70;;;30.66;63.21;94433.13;5098449;28;20497;-40
2023/07/02 13:22:37;;;;;;;0.20;0.20;;;30.10;80.70;;;30.71;63.62;94431.31;5098190;28;20183;-41
2023/07/02 13:25:05;;;;;;;0.20;0.20;;;30.10;80.60;;;30.75;63.39;94421.41;5097710;28;20200;-39
2023/07/02 13:27:32;;;;;;;0.20;0.20;;;30.20;80.60;;;30.79;62.98;94422.34;5098380;28;20592;-38
2023/07/02 13:30:00;;;;;;;0.30;0.30;;;30.20;80.60;;;30.84;62.82;94418.63;5098056;28;20190;-39
2023/07/02 13:32:28;;;;;;;0.30;0.30;;;30.30;80.50;;;30.88;63.29;94419.53;5097967;28;20231;-39
2023/07/02 13:34:58;;;;;;;0.30;0.30;;;30.30;80.30;;;30.92;62.87;94413.13;5097862;28;20188;-39
2023/07/02 13:37:25;;;;;;;0.20;0.20;;;30.30;80.30;;;30.96;62.64;94419.44;5097811;28;20213;-39
2023/07/02 13:39:52;;;;;;;0.20;0.20;;;30.40;80.30;;;31.01;62.21;94420.38;5097877;28;20198;-39
2023/07/02 13:42:19;;;;;;;0.20;0.20;;;30.40;79.40;;;30.97;59.01;94414.84;5113491;28;20195;-42
2023/07/02 13:44:46;;;;;;;0.20;0.20;;;30.50;76.60;;;30.89;57.30;94411.06;5096785;28;20223;-42
2023/07/02 13:47:13;;;;;;;0.30;0.30;;;30.40;74.70;;;30.76;54.67;94414.84;5097251;28;20229;-39
2023/07/02 13:49:41;;;;;;;0.35;0.35;;;30.40;72.30;;;30.61;53.27;94419.75;5097488;28;20211;-38
2023/07/02 13:52:08;;;;;;;0.20;0.20;;;30.40;70.70;;;30.47;52.12;94408.41;5098708;28;20476;-38
2023/07/02 13:54:35;;;;;;;0.30;0.30;;;30.30;70.60;;;30.33;51.57;94419.50;5097757;28;20189;-40
2023/07/02 13:57:04;;;;;;;0.20;0.20;;;30.20;69.60;;;30.23;51.84;94422.59;5097584;28;20272;-40
2023/07/02 13:59:31;;;;;;;0.20;0.20;;;30.10;69.30;;;30.15;50.75;94419.63;5097478;28;20199;-37
2023/07/02 14:01:58;;;;;;;0.30;0.30;;;30.00;68.80;;;30.07;50.38;94425.88;5096464;28;20195;-38
2023/07/02 14:04:25;;;;;;;0.20;0.20;;;29.90;68.60;;;30.00;50.63;94423.72;5097224;28;20220;-36
2023/07/02 14:06:53;;;;;;;0.20;0.20;;;29.80;68.80;;;29.97;50.66;94416.25;5097344;28;20191;-37
2023/07/02 14:09:21;;;;;;;0.20;0.20;;;29.80;68.80;;;29.99;50.92;94414.00;5097219;28;20641;-37
2023/07/02 14:11:48;;;;;;;0.20;0.20;;;29.70;69.40;;;30.01;52.43;94417.16;5097507;28;20191;-37
2023/07/02 14:14:15;;;;;;;0.20;0.20;;;29.60;70.10;;;30.07;52.36;94422.41;5096949;28;20194;-40
2023/07/02 14:16:42;;;;;;;0.22;0.22;;;29.60;70.30;;;30.12;52.83;94414.88;5097216;28;20650;-39
2023/07/02 14:19:09;;;;;;;0.40;0.40;;;29.60;71.10;;;30.18;53.07;94401.94;5095691;28;20566;-39
2023/07/02 14:21:36;;;;;;;0.30;0.30;;;29.60;71.50;;;30.25;53.41;94406.81;5112411;28;20270;-39
2023/07/02 14:24:04;;;;;;;0.30;0.30;;;29.60;71.90;;;30.30;53.85;94404.72;5096911;28;20275;-40
2023/07/02 14:26:31;;;;;;;0.20;0.20;;;29.60;72.10;;;30.35;53.88;94396.41;5096922;28;20235;-37
2023/07/02 14:28:58;;;;;;;0.30;0.30;;;29.60;73.40;;;30.39;54.07;94398.44;5097283;28;20199;-37
2023/07/02 14:31:26;;;;;;;0.30;0.30;;;29.70;72.80;;;30.45;54.34;94400.63;5096761;28;20206;-38
2023/07/02 14:33:53;;;;;;;0.20;0.20;;;29.70;73.10;;;30.52;54.77;94399.31;5096606;28;20666;-37
2023/07/02 14:36:20;;;;;;;0.30;0.30;;;29.80;73.30;;;30.57;55.33;94402.63;5096685;28;20283;-39
2023/07/02 14:38:47;;;;;;;0.30;0.30;;;29.80;73.60;;;30.66;55.84;94406.03;5096691;28;20188;-42
2023/07/02 14:41:14;;;;;;;0.30;0.30;;;29.90;73.90;;;30.73;55.74;94391.19;5096665;28;20249;-38
2023/07/02 14:43:42;;;;;;;0.20;0.20;;;29.90;74.00;;;30.81;55.61;94407.34;5096705;28;20311;-37
2023/07/02 14:46:09;;;;;;;0.30;0.30;;;30.00;74.00;;;30.87;55.96;94407.94;5096771;28;20223;-39
2023/07/02 14:48:36;;;;;;;0.30;0.30;;;30.10;74.00;;;30.93;55.99;94406.59;5096516;28;20579;-40
2023/07/02 14:51:03;;;;;;;0.20;0.20;;;30.20;74.10;;;31.00;56.17;94400.59;5096441;28;20183;-43
2023/07/02 14:53:31;;;;;;;0.20;0.20;;;30.20;74.20;;;31.06;56.10;94415.50;5096662;28;20195;-40
2023/07/02 14:56:01;;;;;;;0.22;0.22;;;30.40;74.20;;;31.11;55.91;94412.63;5129326;27;20193;-38
2023/07/02 14:58:30;;;;;;;0.20;0.20;;;30.40;74.10;;;31.18;56.01;94403.16;5129917;27;20205;-45
2023/07/02 15:00:58;;;;;;;0.30;0.30;;;30.50;74.20;;;31.25;56.45;94412.31;5096520;28;20183;-37
2023/07/02 15:03:27;;;;;;;0.28;0.28;;;30.60;74.30;;;31.30;55.97;94405.91;5096244;28;20193;-39
2023/07/02 15:06:09;;;;;;;0.40;0.40;;;30.60;74.20;;;31.36;55.85;94401.03;5095939;28;20198;-37
2023/07/02 15:08:36;;;;;;;0.30;0.30;;;30.60;74.10;;;31.41;55.99;94406.25;5096164;28;20178;-37
2023/07/02 15:11:04;;;;;;;0.22;0.22;;;30.80;74.20;;;31.44;56.09;94409.06;5096083;28;20252;-39
2023/07/02 15:13:32;;;;;;;0.28;0.28;;;30.80;74.20;;;31.51;56.28;94421.28;5096058;28;20221;-38
2023/07/02 15:15:59;;;;;;;0.28;0.28;;;30.80;74.20;;;31.56;56.57;94418.34;5096111;28;20581;-37
2023/07/02 15:18:27;;;;;;;0.30;0.30;;;30.90;74.10;;;31.60;56.14;94414.63;5096064;28;20222;-40
2023/07/02 15:20:54;;;;;;;0.30;0.30;;;31.00;74.00;;;31.62;56.11;94420.47;5095940;28;20197;-39
2023/07/02 15:23:26;;;;;;;0.30;0.30;;;31.00;73.80;;;31.65;56.06;94427.16;5111826;28;20190;-40
2023/07/02 15:26:04;;;;;;;0.30;0.30;;;31.00;73.80;;;31.68;55.78;94420.28;5095219;28;20329;-40
2023/07/02 15:28:31;;;;;;;0.40;0.40;;;31.00;73.40;;;31.70;56.09;94421.53;5096334;28;20181;-39
2023/07/02 15:31:04;;;;;;;0.30;0.30;;;31.10;73.80;;;31.74;55.96;94425.13;5095796;28;20191;-39
2023/07/02 15:33:31;;;;;;;0.30;0.30;;;31.10;73.60;;;31.77;55.95;94408.19;5096297;28;20232;-40
2023/07/02 15:36:01;;;;;;;0.30;0.30;;;31.10;73.80;;;31.82;55.89;94411.81;5095520;28;20247;-39
2023/07/02 15:38:28;;;;;;;0.30;0.30;;;31.10;73.80;;;31.85;55.86;94413.81;5096128;28;20269;-38
2023/07/02 15:41:16;;;;;;;0.28;0.28;;;31.20;73.80;;;31.89;56.09;94418.22;5095848;28;20216;-39
2023/07/02 15:43:44;;;;;;;0.30;0.30;;;31.30;73.70;;;31.92;55.65;94425.69;5095853;28;20196;-38
2023/07/02 15:46:15;;;;;;;0.30;0.30;;;31.30;73.80;;;31.96;55.60;94419.56;5095510;28;20545;-37
2023/07/02 15:48:44;;;;;;;0.30;0.30;;;31.30;73.60;;;31.98;55.62;94426.25;5095694;28;20183;-37
2023/07/02 15:51:11;;;;;;;0.30;0.30;;;31.30;73.40;;;31.98;55.29;94420.03;5096241;28;20530;-37
2023/07/02 15:53:41;;;;;;;0.25;0.25;;;31.30;73.30;;;31.99;55.15;94419.69;5095663;28;20221;-38
2023/07/02 15:56:09;;;;;;;0.30;0.30;;;31.30;74.20;;;31.99;55.40;94419.69;5095207;28;20261;-39
2023/07/02 15:58:36;;;;;;;0.30;0.30;;;31.30;73.30;;;32.00;55.25;94420.50;5095484;28;20210;-39
2023/07/02 16:01:18;;;;;;;0.30;0.30;;;31.30;73.40;;;32.00;55.06;94425.91;5095339;28;20192;-39
2023/07/02 16:03:45;;;;;;;0.30;0.30;;;31.30;73.10;;;31.98;55.43;94426.25;5095339;28;20660;-38
2023/07/02 16:06:14;;;;;;;0.30;0.30;;;31.30;73.20;;;31.99;54.96;94422.41;5095069;28;20611;-37
2023/07/02 16:08:42;;;;;;;0.28;0.28;;;31.20;73.10;;;31.98;54.93;94409.19;5095134;28;20725;-37
2023/07/02 16:11:12;;;;;;;0.30;0.30;;;31.20;73.00;;;31.97;54.76;94421.97;5095458;28;20255;-41
2023/07/02 16:13:42;;;;;;;0.30;0.30;;;31.20;73.10;;;31.95;54.91;94423.44;5095085;28;20644;-38
2023/07/02 16:16:10;;;;;;;0.30;0.30;;;31.10;73.10;;;31.93;55.15;94413.72;5095009;28;20568;-37
2023/07/02 16:18:37;;;;;;;0.20;0.20;;;31.10;73.30;;;31.95;55.13;94418.03;5095023;28;20276;-37
2023/07/02 16:21:05;;;;;;;0.30;0.30;;;31.10;73.40;;;31.95;55.17;94432.38;5095022;28;20212;-37
2023/07/02 16:23:32;;;;;;;0.30;0.30;;;31.10;73.50;;;31.95;55.02;94418.81;5095018;28;20200;-37
2023/07/02 16:26:03;;;;;;;0.30;0.30;;;31.10;73.40;;;31.94;54.90;94433.50;5094726;28;20286;-37
2023/07/02 16:28:34;;;;;;;0.28;0.28;;;31.10;73.30;;;31.94;55.03;94438.91;5095250;28;20262;-38
2023/07/02 16:31:01;;;;;;;0.30;0.30;;;31.10;73.20;;;31.93;55.09;94437.31;5095529;28;20193;-37
2023/07/02 16:33:33;;;;;;;0.30;0.30;;;31.10;73.30;;;31.92;54.98;94439.25;5095056;28;20236;-37
2023/07/02 16:36:08;;;;;;;0.30;0.30;;;31.10;73.30;;;31.91;54.51;94436.91;5094773;28;20184;-37
2023/07/02 16:38:36;;;;;;;0.30;0.30;;;31.00;73.10;;;31.91;54.49;94434.19;5098773;28;20257;-42
2023/07/02 16:41:05;;;;;;;0.20;0.20;;;31.00;74.20;;;31.91;55.10;94434.19;5098934;28;20538;-37
2023/07/02 16:43:33;;;;;;;0.30;0.30;;;31.00;73.40;;;31.93;55.11;94442.75;5114743;28;20275;-37
2023/07/02 16:46:01;;;;;;;0.20;0.20;;;31.00;73.50;;;31.93;55.53;94440.84;5098808;28;20216;-38
2023/07/02 16:48:28;;;;;;;0.40;0.40;;;31.00;73.50;;;31.96;55.05;94446.69;5098849;28;20220;-38
2023/07/02 16:51:01;;;;;;;0.30;0.30;;;31.00;73.70;;;31.97;55.42;94437.44;5098830;28;20547;-37
2023/07/02 16:53:29;;;;;;;0.20;0.20;;;31.10;73.80;;;31.98;55.49;94441.72;5098787;28;20181;-37
2023/07/02 16:55:59;;;;;;;0.30;0.30;;;31.10;73.60;;;31.98;54.85;94447.94;5098556;28;20532;-39
2023/07/02 16:58:29;;;;;;;0.20;0.20;;;31.10;73.60;;;31.98;55.12;94447.16;5098557;28;20214;-42
2023/07/02 17:01:07;;;;;;;0.30;0.30;;;31.10;73.50;;;31.96;55.08;94438.56;5099148;28;20193;-38
2023/07/02 17:03:35;;;;;;;0.28;0.28;;;31.10;73.30;;;31.95;55.06;94435.06;5098591;28;20181;-38
2023/07/02 17:06:05;;;;;;;0.20;0.20;;;31.00;73.40;;;31.95;55.10;94439.72;5098325;28;20242;-38
2023/07/02 17:08:39;;;;;;;0.20;0.20;;;31.00;73.40;;;31.93;55.19;94446.28;5098430;28;20573;-41
2023/07/02 17:11:09;;;;;;;0.30;0.30;;;31.00;73.40;;;31.93;55.30;94446.28;5098746;28;20186;-38
2023/07/02 17:13:37;;;;;;;0.22;0.22;;;31.00;73.50;;;31.93;55.07;94448.19;5098958;28;20244;-38
2023/07/02 17:16:06;;;;;;;0.30;0.30;;;31.00;73.60;;;31.94;55.55;94447.06;5098241;28;20192;-39
2023/07/02 17:18:34;;;;;;;0.30;0.30;;;31.00;73.60;;;31.93;55.22;94446.28;5098459;28;20662;-38
2023/07/02 17:21:02;;;;;;;0.20;0.20;;;31.00;73.50;;;31.93;55.24;94446.28;5098508;28;20185;-39
2023/07/02 17:23:29;;;;;;;0.30;0.30;;;31.00;73.50;;;31.93;55.39;94454.41;5098126;28;20270;-38
2023/07/02 17:26:06;;;;;;;0.25;0.25;;;31.00;73.50;;;31.92;55.48;94447.41;5098388;28;20568;-38
2023/07/02 17:28:34;;;;;;;0.30;0.30;;;31.00;73.40;;;31.90;54.99;94454.28;5098296;28;20591;-39
2023/07/02 17:31:01;;;;;;;0.30;0.30;;;31.00;73.50;;;31.88;55.10;94454.63;5114251;28;20191;-39
2023/07/02 17:33:29;;;;;;;0.20;0.20;;;30.90;73.40;;;31.87;55.36;94450.34;5098109;28;20204;-39
2023/07/02 17:35:56;;;;;;;0.28;0.28;;;30.90;73.50;;;31.86;55.01;94450.66;5097768;28;20208;-39
2023/07/02 17:38:23;;;;;;;0.30;0.30;;;30.90;73.50;;;31.85;55.47;94447.16;5098078;28;20230;-39
2023/07/02 17:40:50;;;;;;;0.20;0.20;;;30.90;73.50;;;31.83;55.09;94454.84;5097894;28;20191;-41
2023/07/02 17:43:17;;;;;;;0.30;0.30;;;30.90;73.60;;;31.84;54.83;94458.38;5097850;28;20200;-39
2023/07/02 17:45:55;;;;;;;0.30;0.30;;;30.90;73.60;;;31.83;55.13;94457.56;5097912;28;20215;-39
2023/07/02 17:48:25;;;;;;;0.30;0.30;;;30.80;73.50;;;31.82;55.21;94455.97;5098163;28;20257;-42
2023/07/02 17:50:57;;;;;;;0.30;0.30;;;30.90;73.70;;;31.82;55.58;94452.47;5098117;28;20185;-37
2023/07/02 17:53:25;;;;;;;0.30;0.30;;;30.90;73.70;;;31.82;55.47;94453.25;5097730;28;20235;-39
2023/07/02 17:55:52;;;;;;;0.20;0.20;;;30.90;73.80;;;31.81;55.51;94459.84;5096765;28;20258;-37
2023/07/02 17:58:19;;;;;;;0.20;0.20;;;30.80;73.80;;;31.79;55.57;94459.38;5097748;28;20221;-37
2023/07/02 18:00:51;;;;;;;0.30;0.30;;;30.80;73.70;;;31.78;55.38;94464.00;5097771;28;20223;-38
2023/07/02 18:03:18;;;;;;;0.20;0.20;;;30.80;73.70;;;31.77;55.44;94464.34;5113169;28;20185;-38
2023/07/02 18:05:46;;;;;;;0.30;0.30;;;30.80;73.80;;;31.75;55.57;94469.31;5097385;28;20190;-40
2023/07/02 18:08:13;;;;;;;0.20;0.20;;;30.80;73.80;;;31.74;55.57;94473.16;5097547;28;20196;-40
2023/07/02 18:10:41;;;;;;;0.20;0.20;;;30.80;73.90;;;31.73;55.82;94471.56;5097267;28;20186;-40
2023/07/02 18:13:08;;;;;;;0.30;0.30;;;30.80;73.90;;;31.71;55.36;94474.63;5097217;28;20207;-40
2023/07/02 18:15:35;;;;;;;0.30;0.30;;;30.80;73.90;;;31.70;55.84;94466.81;5097194;28;20204;-40
2023/07/02 18:18:03;;;;;;;0.30;0.30;;;30.70;73.80;;;31.69;55.61;94467.94;5097566;28;20265;-42
2023/07/02 18:20:30;;;;;;;0.30;0.30;;;30.70;74.00;;;31.66;55.73;94472.13;5097137;28;20194;-40
2023/07/02 18:22:57;;;;;;;0.30;0.30;;;30.70;74.00;;;31.64;55.83;94477.09;5097295;28;20242;-37
2023/07/02 18:25:24;;;;;;;0.20;0.20;;;30.70;74.00;;;31.64;56.06;94473.56;5096681;28;20322;-38
2023/07/02 18:28:21;;;;;;;0.20;0.20;;;30.60;74.00;;;31.59;55.78;94475.38;5097256;28;20185;-38
2023/07/02 18:30:51;;;;;;;0.30;0.30;;;30.60;74.00;;;31.58;56.02;94476.50;5085580;28;20208;-38
2023/07/02 18:33:18;;;;;;;0.20;0.20;;;30.70;74.20;;;31.57;55.97;94474.13;5097098;28;20194;-38
2023/07/02 18:35:46;;;;;;;0.20;0.20;;;30.60;74.30;;;31.55;55.89;94479.88;5096655;28;20220;-38
2023/07/02 18:38:14;;;;;;;0.30;0.30;;;30.60;74.30;;;31.54;56.11;94480.22;5096692;28;20216;-37
2023/07/02 18:40:44;;;;;;;0.30;0.30;;;30.60;74.30;;;31.53;56.45;94475.91;5096681;28;20215;-38
2023/07/02 18:43:12;;;;;;;0.20;0.20;;;30.60;74.40;;;31.52;56.26;94479.75;5097734;28;20237;-40
2023/07/02 18:45:39;;;;;;;0.30;0.30;;;30.60;74.40;;;31.50;56.49;94487.44;5096481;28;20185;-37
2023/07/02 18:48:06;;;;;;;0.30;0.30;;;30.60;74.50;;;31.47;56.52;94488.91;5096772;28;20201;-38
2023/07/02 18:50:34;;;;;;;0.30;0.30;;;30.60;74.60;;;31.46;56.05;94492.75;5096780;28;20587;-37
2023/07/02 18:53:01;;;;;;;0.20;0.20;;;30.50;74.60;;;31.45;56.82;94493.88;5096425;28;20192;-41
2023/07/02 18:55:28;;;;;;;0.40;0.40;;;30.50;74.60;;;31.43;56.23;94496.94;5096308;28;20198;-40